sensor_id;sensor_type;location;lat;lon;timestamp;pressure;altitude;pressure_sealevel;temperature;humidity
11041;BME280;5573;49.592;8.662;2023-05-08T00:01:47;100204.16;;;13.49;94.76
11041;BME280;5573;49.592;8.662;2023-05-08T00:04:35;100201.28;;;13.44;94.88
11041;BME280;5573;49.592;8.662;2023-05-08T00:07:24;100207.09;;;13.41;94.64
11041;BME280;5573;49.592;8.662;2023-05-08T00:10:12;100205.44;;;13.40;94.72
11041;BME280;5573;49.592;8.662;2023-05-08T00:13:00;100198.09;;;13.36;94.72
11041;BME280;5573;49.592;8.662;2023-05-08T00:15:50;100198.91;;;13.36;95.18
11041;BME280;5573;49.592;8.662;2023-05-08T00:18:38;100194.81;;;13.34;94.66
11041;BME280;5573;49.592;8.662;2023-05-08T00:21:26;100198.03;;;13.42;95.01
11041;BME280;5573;49.592;8.662;2023-05-08T00:24:14;100203.16;;;13.44;94.84
11041;BME280;5573;49.592;8.662;2023-05-08T00:27:02;100213.47;;;13.40;94.82
11041;BME280;5573;49.592;8.662;2023-05-08T00:29:50;100198.50;;;13.33;94.87
11041;BME280;5573;49.592;8.662;2023-05-08T00:32:40;100209.19;;;13.39;94.77
11041;BME280;5573;49.592;8.662;2023-05-08T00:35:28;100211.63;;;13.41;94.90
11041;BME280;5573;49.592;8.662;2023-05-08T00:38:16;100215.75;;;13.43;95.13
11041;BME280;5573;49.592;8.662;2023-05-08T00:41:04;100209.31;;;13.44;95.01
11041;BME280;5573;49.592;8.662;2023-05-08T00:43:52;100205.19;;;13.48;94.96
11041;BME280;5573;49.592;8.662;2023-05-08T00:46:41;100200.66;;;13.49;95.04
11041;BME280;5573;49.592;8.662;2023-05-08T00:49:31;100211.97;;;13.51;95.00
11041;BME280;5573;49.592;8.662;2023-05-08T00:52:21;100211.06;;;13.57;95.07
11041;BME280;5573;49.592;8.662;2023-05-08T00:55:09;100207.38;;;13.58;95.21
11041;BME280;5573;49.592;8.662;2023-05-08T00:57:58;100210.84;;;13.58;95.08
11041;BME280;5573;49.592;8.662;2023-05-08T01:00:47;100208.41;;;13.57;95.03
11041;BME280;5573;49.592;8.662;2023-05-08T01:03:37;100205.28;;;13.60;95.01
11041;BME280;5573;49.592;8.662;2023-05-08T01:06:27;100207.94;;;13.60;95.04
11041;BME280;5573;49.592;8.662;2023-05-08T01:09:15;100208.78;;;13.60;95.21
11041;BME280;5573;49.592;8.662;2023-05-08T01:12:09;100197.03;;;13.62;95.08
11041;BME280;5573;49.592;8.662;2023-05-08T01:15:10;100214.06;;;13.67;94.95
11041;BME280;5573;49.592;8.662;2023-05-08T01:18:06;100204.78;;;13.70;94.95
11041;BME280;5573;49.592;8.662;2023-05-08T01:21:02;100215.25;;;13.71;94.87
11041;BME280;5573;49.592;8.662;2023-05-08T01:27:39;100227.81;;;13.71;94.66
11041;BME280;5573;49.592;8.662;2023-05-08T01:30:54;100219.19;;;13.69;94.76
11041;BME280;5573;49.592;8.662;2023-05-08T01:33:50;100223.28;;;13.71;95.00
11041;BME280;5573;49.592;8.662;2023-05-08T01:36:48;100223.28;;;13.71;94.66
11041;BME280;5573;49.592;8.662;2023-05-08T01:39:42;100221.25;;;13.67;94.87
11041;BME280;5573;49.592;8.662;2023-05-08T01:42:42;100222.91;;;13.68;94.83
11041;BME280;5573;49.592;8.662;2023-05-08T01:45:36;100220.22;;;13.68;94.81
11041;BME280;5573;49.592;8.662;2023-05-08T01:48:29;100203.25;;;13.55;94.71
11041;BME280;5573;49.592;8.662;2023-05-08T01:51:22;100219.66;;;13.66;95.00
11041;BME280;5573;49.592;8.662;2023-05-08T01:54:15;100225.00;;;13.66;94.68
11041;BME280;5573;49.592;8.662;2023-05-08T01:57:08;100222.09;;;13.67;94.78
11041;BME280;5573;49.592;8.662;2023-05-08T01:59:59;100224.09;;;13.72;95.01
11041;BME280;5573;49.592;8.662;2023-05-08T02:02:48;100227.16;;;13.75;94.89
11041;BME280;5573;49.592;8.662;2023-05-08T02:05:37;100228.88;;;13.70;94.70
11041;BME280;5573;49.592;8.662;2023-05-08T02:08:28;100223.81;;;13.62;94.71
11041;BME280;5573;49.592;8.662;2023-05-08T02:11:19;100237.31;;;13.67;94.69
11041;BME280;5573;49.592;8.662;2023-05-08T02:14:10;100237.72;;;13.70;94.38
11041;BME280;5573;49.592;8.662;2023-05-08T02:17:00;100236.13;;;13.63;94.51
11041;BME280;5573;49.592;8.662;2023-05-08T02:19:50;100236.56;;;13.59;94.40
11041;BME280;5573;49.592;8.662;2023-05-08T02:22:40;100243.78;;;13.59;94.36
11041;BME280;5573;49.592;8.662;2023-05-08T02:25:31;100242.16;;;13.58;94.39
11041;BME280;5573;49.592;8.662;2023-05-08T02:28:21;100245.69;;;13.52;94.23
11041;BME280;5573;49.592;8.662;2023-05-08T02:31:11;100239.09;;;13.54;94.44
11041;BME280;5573;49.592;8.662;2023-05-08T02:33:59;100235.81;;;13.52;94.29
11041;BME280;5573;49.592;8.662;2023-05-08T02:36:49;100235.44;;;13.49;94.81
11041;BME280;5573;49.592;8.662;2023-05-08T02:39:39;100232.38;;;13.45;94.68
11041;BME280;5573;49.592;8.662;2023-05-08T02:42:30;100245.69;;;13.52;94.59
11041;BME280;5573;49.592;8.662;2023-05-08T02:45:19;100238.28;;;13.54;94.87
11041;BME280;5573;49.592;8.662;2023-05-08T02:48:13;100241.63;;;13.49;94.70
11041;BME280;5573;49.592;8.662;2023-05-08T02:51:15;100242.97;;;13.58;94.60
11041;BME280;5573;49.592;8.662;2023-05-08T02:54:08;100241.78;;;13.54;94.60
11041;BME280;5573;49.592;8.662;2023-05-08T02:57:00;100242.53;;;13.62;94.90
11041;BME280;5573;49.592;8.662;2023-05-08T02:59:56;100241.34;;;13.57;94.52
11041;BME280;5573;49.592;8.662;2023-05-08T03:02:51;100242.38;;;13.56;94.34
11041;BME280;5573;49.592;8.662;2023-05-08T03:05:43;100239.91;;;13.55;94.26
11041;BME280;5573;49.592;8.662;2023-05-08T03:08:34;100232.19;;;13.47;94.24
11041;BME280;5573;49.592;8.662;2023-05-08T03:11:28;100237.09;;;13.50;94.23
11041;BME280;5573;49.592;8.662;2023-05-08T03:14:20;100242.19;;;13.51;94.43
11041;BME280;5573;49.592;8.662;2023-05-08T03:17:13;100241.22;;;13.46;94.09
11041;BME280;5573;49.592;8.662;2023-05-08T03:20:07;100238.31;;;13.47;93.98
11041;BME280;5573;49.592;8.662;2023-05-08T03:22:58;100241.00;;;13.47;94.08
11041;BME280;5573;49.592;8.662;2023-05-08T03:25:47;100241.69;;;13.43;94.07
11041;BME280;5573;49.592;8.662;2023-05-08T03:28:35;100243.69;;;13.47;94.23
11041;BME280;5573;49.592;8.662;2023-05-08T03:31:25;100214.81;;;13.31;93.95
11041;BME280;5573;49.592;8.662;2023-05-08T03:34:16;100238.00;;;13.37;94.08
11041;BME280;5573;49.592;8.662;2023-05-08T03:37:05;100241.22;;;13.46;93.58
11041;BME280;5573;49.592;8.662;2023-05-08T03:39:54;100237.72;;;13.45;93.22
11041;BME280;5573;49.592;8.662;2023-05-08T03:42:43;100239.97;;;13.48;93.33
11041;BME280;5573;49.592;8.662;2023-05-08T03:45:33;100239.66;;;13.38;93.06
11041;BME280;5573;49.592;8.662;2023-05-08T03:48:23;100236.78;;;13.40;93.22
11041;BME280;5573;49.592;8.662;2023-05-08T03:51:14;100235.19;;;13.32;92.96
11041;BME280;5573;49.592;8.662;2023-05-08T03:54:03;100229.03;;;13.25;93.25
11041;BME280;5573;49.592;8.662;2023-05-08T03:56:51;100228.84;;;13.27;93.26
11041;BME280;5573;49.592;8.662;2023-05-08T03:59:46;100230.69;;;13.26;93.17
11041;BME280;5573;49.592;8.662;2023-05-08T04:02:40;100234.81;;;13.22;93.33
11041;BME280;5573;49.592;8.662;2023-05-08T04:05:34;100236.47;;;13.23;93.37
11041;BME280;5573;49.592;8.662;2023-05-08T04:08:31;100240.19;;;13.22;93.13
11041;BME280;5573;49.592;8.662;2023-05-08T04:11:25;100241.44;;;13.20;93.38
11041;BME280;5573;49.592;8.662;2023-05-08T04:14:19;100243.69;;;13.23;93.15
11041;BME280;5573;49.592;8.662;2023-05-08T04:17:10;100239.75;;;13.25;93.14
11041;BME280;5573;49.592;8.662;2023-05-08T04:20:03;100239.16;;;13.23;93.08
11041;BME280;5573;49.592;8.662;2023-05-08T04:22:53;100237.75;;;13.21;93.21
11041;BME280;5573;49.592;8.662;2023-05-08T04:25:46;100242.84;;;13.22;93.19
11041;BME280;5573;49.592;8.662;2023-05-08T04:28:35;100239.34;;;13.22;92.96
11041;BME280;5573;49.592;8.662;2023-05-08T04:31:24;100237.94;;;13.19;92.96
11041;BME280;5573;49.592;8.662;2023-05-08T04:34:16;100242.03;;;13.22;93.19
11041;BME280;5573;49.592;8.662;2023-05-08T04:37:05;100241.66;;;13.18;93.11
11041;BME280;5573;49.592;8.662;2023-05-08T04:39:54;100249.25;;;13.21;92.94
11041;BME280;5573;49.592;8.662;2023-05-08T04:42:44;100252.97;;;13.20;92.86
11041;BME280;5573;49.592;8.662;2023-05-08T04:45:35;100258.75;;;13.17;92.73
11041;BME280;5573;49.592;8.662;2023-05-08T04:48:24;100257.94;;;13.17;92.80
11041;BME280;5573;49.592;8.662;2023-05-08T04:51:12;100271.91;;;13.19;92.87
11041;BME280;5573;49.592;8.662;2023-05-08T04:54:01;100273.94;;;13.23;93.15
11041;BME280;5573;49.592;8.662;2023-05-08T04:56:49;100270.00;;;13.26;92.99
11041;BME280;5573;49.592;8.662;2023-05-08T04:59:39;100286.88;;;13.26;92.88
11041;BME280;5573;49.592;8.662;2023-05-08T05:02:27;100281.69;;;13.31;92.68
11041;BME280;5573;49.592;8.662;2023-05-08T05:05:16;100291.38;;;13.32;92.58
11041;BME280;5573;49.592;8.662;2023-05-08T05:08:04;100292.16;;;13.33;92.57
11041;BME280;5573;49.592;8.662;2023-05-08T05:10:52;100290.16;;;13.28;92.56
11041;BME280;5573;49.592;8.662;2023-05-08T05:13:40;100295.28;;;13.30;92.70
11041;BME280;5573;49.592;8.662;2023-05-08T05:16:30;100295.50;;;13.28;92.92
11041;BME280;5573;49.592;8.662;2023-05-08T05:19:19;100296.44;;;13.40;92.39
11041;BME280;5573;49.592;8.662;2023-05-08T05:22:07;100290.31;;;13.33;92.43
11041;BME280;5573;49.592;8.662;2023-05-08T05:24:55;100297.75;;;13.31;92.72
11041;BME280;5573;49.592;8.662;2023-05-08T05:27:44;100305.94;;;13.36;92.62
11041;BME280;5573;49.592;8.662;2023-05-08T05:30:32;100304.06;;;13.37;92.58
11041;BME280;5573;49.592;8.662;2023-05-08T05:33:22;100309.03;;;13.33;91.05
11041;BME280;5573;49.592;8.662;2023-05-08T05:36:11;100308.47;;;13.31;91.40
11041;BME280;5573;49.592;8.662;2023-05-08T05:38:59;100304.69;;;13.39;92.20
11041;BME280;5573;49.592;8.662;2023-05-08T05:41:48;100299.88;;;13.47;91.72
11041;BME280;5573;49.592;8.662;2023-05-08T05:44:37;100304.44;;;13.47;92.06
11041;BME280;5573;49.592;8.662;2023-05-08T05:47:25;100302.56;;;13.47;92.06
11041;BME280;5573;49.592;8.662;2023-05-08T05:50:15;100309.28;;;13.56;92.12
11041;BME280;5573;49.592;8.662;2023-05-08T05:53:05;100310.75;;;13.52;91.31
11041;BME280;5573;49.592;8.662;2023-05-08T05:55:53;100307.53;;;13.44;91.13
11041;BME280;5573;49.592;8.662;2023-05-08T05:58:41;100312.84;;;13.50;91.32
11041;BME280;5573;49.592;8.662;2023-05-08T06:01:31;100311.59;;;13.53;91.30
11041;BME280;5573;49.592;8.662;2023-05-08T06:04:19;100315.66;;;13.55;91.10
11041;BME280;5573;49.592;8.662;2023-05-08T06:07:09;100312.56;;;13.58;91.04
11041;BME280;5573;49.592;8.662;2023-05-08T06:09:57;100311.59;;;13.53;90.69
11041;BME280;5573;49.592;8.662;2023-05-08T06:12:45;100314.19;;;13.59;90.81
11041;BME280;5573;49.592;8.662;2023-05-08T06:15:34;100311.44;;;13.73;90.71
11041;BME280;5573;49.592;8.662;2023-05-08T06:18:22;100308.75;;;13.73;90.22
11041;BME280;5573;49.592;8.662;2023-05-08T06:21:10;100313.66;;;13.76;89.92
11041;BME280;5573;49.592;8.662;2023-05-08T06:24:00;100315.47;;;13.82;89.75
11041;BME280;5573;49.592;8.662;2023-05-08T06:26:48;100315.25;;;13.83;89.67
11041;BME280;5573;49.592;8.662;2023-05-08T06:29:36;100314.56;;;13.70;90.32
11041;BME280;5573;49.592;8.662;2023-05-08T06:32:24;100269.25;;;13.43;89.87
11041;BME280;5573;49.592;8.662;2023-05-08T06:35:12;100321.56;;;13.89;88.57
11041;BME280;5573;49.592;8.662;2023-05-08T06:38:01;100328.19;;;13.86;89.12
11041;BME280;5573;49.592;8.662;2023-05-08T06:40:50;100328.38;;;13.91;89.27
11041;BME280;5573;49.592;8.662;2023-05-08T06:43:39;100333.03;;;13.96;88.89
11041;BME280;5573;49.592;8.662;2023-05-08T06:46:27;100333.00;;;14.02;87.89
11041;BME280;5573;49.592;8.662;2023-05-08T06:49:15;100335.50;;;13.97;87.10
11041;BME280;5573;49.592;8.662;2023-05-08T06:52:03;100342.53;;;13.98;87.69
11041;BME280;5573;49.592;8.662;2023-05-08T06:54:52;100338.88;;;14.11;87.61
11041;BME280;5573;49.592;8.662;2023-05-08T06:57:41;100341.63;;;14.04;88.29
11041;BME280;5573;49.592;8.662;2023-05-08T07:00:30;100341.19;;;14.07;88.55
11041;BME280;5573;49.592;8.662;2023-05-08T07:03:18;100348.56;;;14.12;87.68
11041;BME280;5573;49.592;8.662;2023-05-08T07:06:06;100351.72;;;14.27;86.58
11041;BME280;5573;49.592;8.662;2023-05-08T07:08:55;100361.53;;;14.33;86.77
11041;BME280;5573;49.592;8.662;2023-05-08T07:11:43;100354.84;;;14.24;87.82
11041;BME280;5573;49.592;8.662;2023-05-08T07:14:33;100362.88;;;14.24;86.82
11041;BME280;5573;49.592;8.662;2023-05-08T07:17:21;100363.31;;;14.21;87.15
11041;BME280;5573;49.592;8.662;2023-05-08T07:20:09;100370.00;;;14.12;88.32
11041;BME280;5573;49.592;8.662;2023-05-08T07:22:57;100361.50;;;14.15;89.24
11041;BME280;5573;49.592;8.662;2023-05-08T07:25:45;100357.50;;;14.06;89.38
11041;BME280;5573;49.592;8.662;2023-05-08T07:28:33;100365.47;;;14.13;90.38
11041;BME280;5573;49.592;8.662;2023-05-08T07:31:23;100370.38;;;14.16;89.88
11041;BME280;5573;49.592;8.662;2023-05-08T07:34:11;100361.50;;;14.15;88.28
11041;BME280;5573;49.592;8.662;2023-05-08T07:36:59;100367.09;;;14.14;88.21
11041;BME280;5573;49.592;8.662;2023-05-08T07:39:47;100367.63;;;14.22;88.38
11041;BME280;5573;49.592;8.662;2023-05-08T07:42:39;100373.59;;;14.24;88.51
11041;BME280;5573;49.592;8.662;2023-05-08T07:45:28;100370.84;;;14.31;89.13
11041;BME280;5573;49.592;8.662;2023-05-08T07:48:17;100310.31;;;14.05;88.97
11041;BME280;5573;49.592;8.662;2023-05-08T07:51:05;100375.34;;;14.37;87.67
11041;BME280;5573;49.592;8.662;2023-05-08T07:53:53;100366.19;;;14.44;87.72
11041;BME280;5573;49.592;8.662;2023-05-08T07:56:42;100366.28;;;14.74;84.19
11041;BME280;5573;49.592;8.662;2023-05-08T07:59:30;100371.72;;;14.68;85.54
11041;BME280;5573;49.592;8.662;2023-05-08T08:02:24;100371.88;;;14.73;86.45
11041;BME280;5573;49.592;8.662;2023-05-08T08:05:13;100372.00;;;14.78;85.72
11041;BME280;5573;49.592;8.662;2023-05-08T08:08:02;100372.44;;;14.93;84.37
11041;BME280;5573;49.592;8.662;2023-05-08T08:10:50;100370.88;;;14.85;85.10
11041;BME280;5573;49.592;8.662;2023-05-08T08:13:39;100377.31;;;14.84;85.67
11041;BME280;5573;49.592;8.662;2023-05-08T08:16:27;100373.72;;;14.90;84.63
11041;BME280;5573;49.592;8.662;2023-05-08T08:19:15;100374.53;;;14.91;86.91
11041;BME280;5573;49.592;8.662;2023-05-08T08:22:05;100375.38;;;14.91;86.87
11041;BME280;5573;49.592;8.662;2023-05-08T08:24:53;100376.22;;;15.22;85.27
11041;BME280;5573;49.592;8.662;2023-05-08T08:27:42;100374.84;;;15.31;83.93
11041;BME280;5573;49.592;8.662;2023-05-08T08:30:29;100372.28;;;15.36;83.06
11041;BME280;5573;49.592;8.662;2023-05-08T08:33:18;100376.63;;;15.48;81.65
11041;BME280;5573;49.592;8.662;2023-05-08T08:36:11;100373.91;;;15.55;82.96
11041;BME280;5573;49.592;8.662;2023-05-08T08:39:01;100372.94;;;15.49;85.30
11041;BME280;5573;49.592;8.662;2023-05-08T08:41:49;100370.50;;;15.60;84.37
11041;BME280;5573;49.592;8.662;2023-05-08T08:44:37;100368.69;;;15.72;82.29
11041;BME280;5573;49.592;8.662;2023-05-08T08:47:27;100377.44;;;15.79;83.04
11041;BME280;5573;49.592;8.662;2023-05-08T08:50:18;100375.75;;;15.96;81.62
11041;BME280;5573;49.592;8.662;2023-05-08T08:53:10;100358.44;;;15.92;80.52
11041;BME280;5573;49.592;8.662;2023-05-08T08:56:00;100376.44;;;16.03;81.45
11041;BME280;5573;49.592;8.662;2023-05-08T08:58:52;100377.72;;;16.12;80.15
11041;BME280;5573;49.592;8.662;2023-05-08T09:01:43;100374.47;;;16.10;79.18
11041;BME280;5573;49.592;8.662;2023-05-08T09:04:32;100376.69;;;16.48;78.71
11041;BME280;5573;49.592;8.662;2023-05-08T09:07:21;100374.09;;;16.65;78.86
11041;BME280;5573;49.592;8.662;2023-05-08T09:10:10;100384.38;;;16.79;77.41
11041;BME280;5573;49.592;8.662;2023-05-08T09:13:02;100377.09;;;16.91;77.13
11041;BME280;5573;49.592;8.662;2023-05-08T09:15:50;100370.81;;;17.14;76.25
11041;BME280;5573;49.592;8.662;2023-05-08T09:18:39;100387.50;;;17.28;74.47
11041;BME280;5573;49.592;8.662;2023-05-08T09:21:27;100387.34;;;17.34;76.79
11041;BME280;5573;49.592;8.662;2023-05-08T09:24:15;100389.81;;;17.36;74.87
11041;BME280;5573;49.592;8.662;2023-05-08T09:27:16;100391.94;;;17.34;76.73
11041;BME280;5573;49.592;8.662;2023-05-08T09:30:10;100398.78;;;17.13;77.70
11041;BME280;5573;49.592;8.662;2023-05-08T09:33:00;100398.50;;;16.86;78.54
11041;BME280;5573;49.592;8.662;2023-05-08T09:35:49;100395.41;;;17.06;76.55
11041;BME280;5573;49.592;8.662;2023-05-08T09:38:38;100402.44;;;17.07;77.08
11041;BME280;5573;49.592;8.662;2023-05-08T09:41:29;100406.56;;;16.98;77.23
11041;BME280;5573;49.592;8.662;2023-05-08T09:44:17;100404.75;;;17.15;77.85
11041;BME280;5573;49.592;8.662;2023-05-08T09:47:10;100402.38;;;17.30;77.12
11041;BME280;5573;49.592;8.662;2023-05-08T09:50:00;100411.56;;;17.06;78.07
11041;BME280;5573;49.592;8.662;2023-05-08T09:52:48;100411.97;;;17.26;77.67
11041;BME280;5573;49.592;8.662;2023-05-08T09:55:46;100407.47;;;17.15;77.74
11041;BME280;5573;49.592;8.662;2023-05-08T09:58:38;100409.19;;;17.21;78.17
11041;BME280;5573;49.592;8.662;2023-05-08T10:01:28;100409.13;;;17.33;76.16
11041;BME280;5573;49.592;8.662;2023-05-08T10:04:17;100417.34;;;17.55;76.59
11041;BME280;5573;49.592;8.662;2023-05-08T10:07:26;100409.81;;;17.68;75.78
11041;BME280;5573;49.592;8.662;2023-05-08T10:10:21;100426.81;;;17.69;76.98
11041;BME280;5573;49.592;8.662;2023-05-08T10:13:10;100423.16;;;17.35;76.18
11041;BME280;5573;49.592;8.662;2023-05-08T10:15:59;100423.28;;;17.40;76.13
11041;BME280;5573;49.592;8.662;2023-05-08T10:18:49;100420.13;;;17.31;77.05
11041;BME280;5573;49.592;8.662;2023-05-08T10:21:40;100419.53;;;17.41;75.97
11041;BME280;5573;49.592;8.662;2023-05-08T10:24:32;100421.97;;;17.42;76.85
11041;BME280;5573;49.592;8.662;2023-05-08T10:27:22;100419.38;;;17.48;76.45
11041;BME280;5573;49.592;8.662;2023-05-08T10:30:16;100427.91;;;17.56;75.35
11041;BME280;5573;49.592;8.662;2023-05-08T10:33:08;100418.16;;;17.67;76.12
11041;BME280;5573;49.592;8.662;2023-05-08T10:35:56;100424.22;;;17.74;75.51
11041;BME280;5573;49.592;8.662;2023-05-08T10:38:46;100420.25;;;17.65;75.76
11041;BME280;5573;49.592;8.662;2023-05-08T10:41:36;100417.84;;;17.52;76.28
11041;BME280;5573;49.592;8.662;2023-05-08T10:44:26;100421.97;;;17.42;76.44
11041;BME280;5573;49.592;8.662;2023-05-08T10:47:20;100420.53;;;17.63;76.46
11041;BME280;5573;49.592;8.662;2023-05-08T10:50:21;100423.78;;;17.54;75.74
11041;BME280;5573;49.592;8.662;2023-05-08T10:53:18;100425.66;;;17.53;77.51
11041;BME280;5573;49.592;8.662;2023-05-08T10:56:09;100415.03;;;17.58;76.95
11041;BME280;5573;49.592;8.662;2023-05-08T10:58:58;100416.50;;;17.66;77.17
11041;BME280;5573;49.592;8.662;2023-05-08T11:01:47;100409.03;;;17.28;77.36
11041;BME280;5573;49.592;8.662;2023-05-08T11:04:35;100407.19;;;17.17;78.55
11041;BME280;5573;49.592;8.662;2023-05-08T11:07:29;100376.44;;;17.13;77.44
11041;BME280;5573;49.592;8.662;2023-05-08T11:10:37;100408.88;;;17.34;78.16
11041;BME280;5573;49.592;8.662;2023-05-08T11:13:31;100412.19;;;17.53;77.64
11041;BME280;5573;49.592;8.662;2023-05-08T11:19:54;100397.81;;;17.76;77.12
11041;BME280;5573;49.592;8.662;2023-05-08T11:22:46;100402.00;;;17.67;75.86
11041;BME280;5573;49.592;8.662;2023-05-08T11:25:41;100403.63;;;17.68;76.01
11041;BME280;5573;49.592;8.662;2023-05-08T11:28:32;100402.66;;;17.45;76.24
11041;BME280;5573;49.592;8.662;2023-05-08T11:31:20;100396.41;;;17.28;77.04
11041;BME280;5573;49.592;8.662;2023-05-08T11:34:46;100397.88;;;17.36;77.42
11041;BME280;5573;49.592;8.662;2023-05-08T11:37:35;100401.25;;;17.43;77.22
11041;BME280;5573;49.592;8.662;2023-05-08T11:40:45;100390.19;;;17.28;77.73
11041;BME280;5573;49.592;8.662;2023-05-08T11:47:10;100388.19;;;17.63;76.59
11041;BME280;5573;49.592;8.662;2023-05-08T11:50:07;100385.84;;;17.55;77.24
11041;BME280;5573;49.592;8.662;2023-05-08T11:52:55;100388.69;;;17.77;76.07
11041;BME280;5573;49.592;8.662;2023-05-08T11:55:46;100388.25;;;17.68;76.64
11041;BME280;5573;49.592;8.662;2023-05-08T11:58:34;100393.50;;;17.46;77.19
11041;BME280;5573;49.592;8.662;2023-05-08T12:01:23;100390.78;;;17.30;77.29
11041;BME280;5573;49.592;8.662;2023-05-08T12:04:12;100387.78;;;17.15;78.45
11041;BME280;5573;49.592;8.662;2023-05-08T12:07:00;100392.00;;;17.11;78.85
11041;BME280;5573;49.592;8.662;2023-05-08T12:09:48;100402.34;;;17.02;79.16
11041;BME280;5573;49.592;8.662;2023-05-08T12:12:37;100400.13;;;16.99;78.70
11041;BME280;5573;49.592;8.662;2023-05-08T12:15:26;100403.19;;;16.91;79.95
11041;BME280;5573;49.592;8.662;2023-05-08T12:18:15;100402.34;;;16.90;79.95
11041;BME280;5573;49.592;8.662;2023-05-08T12:21:05;100401.94;;;16.82;80.82
11041;BME280;5573;49.592;8.662;2023-05-08T12:23:53;100407.25;;;16.93;81.70
11041;BME280;5573;49.592;8.662;2023-05-08T12:26:41;100406.91;;;16.90;81.09
11041;BME280;5573;49.592;8.662;2023-05-08T12:33:33;100395.75;;;17.10;80.50
11041;BME280;5573;49.592;8.662;2023-05-08T12:36:23;100396.91;;;17.14;79.10
11041;BME280;5573;49.592;8.662;2023-05-08T12:39:11;100375.72;;;17.17;78.12
11041;BME280;5573;49.592;8.662;2023-05-08T12:41:59;100398.25;;;17.28;77.17
11041;BME280;5573;49.592;8.662;2023-05-08T12:44:51;100403.91;;;17.26;77.32
11041;BME280;5573;49.592;8.662;2023-05-08T12:47:39;100400.91;;;17.11;77.74
11041;BME280;5573;49.592;8.662;2023-05-08T12:50:28;100407.69;;;17.14;78.40
11041;BME280;5573;49.592;8.662;2023-05-08T12:53:20;100400.91;;;17.11;78.33
11041;BME280;5573;49.592;8.662;2023-05-08T12:56:09;100403.09;;;17.26;77.62
11041;BME280;5573;49.592;8.662;2023-05-08T12:58:57;100402.16;;;17.20;77.52
11041;BME280;5573;49.592;8.662;2023-05-08T13:01:49;100400.06;;;17.22;77.69
11041;BME280;5573;49.592;8.662;2023-05-08T13:04:37;100399.56;;;17.25;77.30
11041;BME280;5573;49.592;8.662;2023-05-08T13:07:30;100400.19;;;17.44;76.73
11041;BME280;5573;49.592;8.662;2023-05-08T13:10:20;100391.44;;;17.65;75.46
11041;BME280;5573;49.592;8.662;2023-05-08T13:13:11;100396.94;;;18.04;75.34
11041;BME280;5573;49.592;8.662;2023-05-08T13:16:01;100395.63;;;18.23;74.89
11041;BME280;5573;49.592;8.662;2023-05-08T13:18:50;100397.25;;;18.40;74.66
11041;BME280;5573;49.592;8.662;2023-05-08T13:21:38;100391.66;;;18.47;73.15
11041;BME280;5573;49.592;8.662;2023-05-08T13:24:26;100390.97;;;18.73;73.04
11041;BME280;5573;49.592;8.662;2023-05-08T13:27:15;100384.44;;;18.69;72.64
11041;BME280;5573;49.592;8.662;2023-05-08T13:30:04;100378.00;;;18.92;71.78
11041;BME280;5573;49.592;8.662;2023-05-08T13:32:53;100365.06;;;18.34;72.73
11041;BME280;5573;49.592;8.662;2023-05-08T13:35:41;100378.03;;;18.54;71.48
11041;BME280;5573;49.592;8.662;2023-05-08T13:38:29;100384.50;;;18.36;72.94
11041;BME280;5573;49.592;8.662;2023-05-08T13:41:17;100377.41;;;18.30;72.43
11041;BME280;5573;49.592;8.662;2023-05-08T13:44:06;100383.06;;;18.12;73.22
11041;BME280;5573;49.592;8.662;2023-05-08T13:46:55;100378.78;;;18.32;73.39
11041;BME280;5573;49.592;8.662;2023-05-08T13:49:43;100379.59;;;18.50;70.94
11041;BME280;5573;49.592;8.662;2023-05-08T13:52:32;100375.25;;;18.49;72.70
11041;BME280;5573;49.592;8.662;2023-05-08T13:55:21;100359.47;;;18.40;71.71
11041;BME280;5573;49.592;8.662;2023-05-08T13:58:09;100369.94;;;18.37;71.89
11041;BME280;5573;49.592;8.662;2023-05-08T14:00:59;100364.63;;;18.42;71.46
11041;BME280;5573;49.592;8.662;2023-05-08T14:04:04;100376.16;;;18.76;71.15
11041;BME280;5573;49.592;8.662;2023-05-08T14:06:52;100370.09;;;18.85;70.78
11041;BME280;5573;49.592;8.662;2023-05-08T14:09:40;100362.78;;;19.08;68.47
11041;BME280;5573;49.592;8.662;2023-05-08T14:12:29;100364.53;;;19.19;68.73
11041;BME280;5573;49.592;8.662;2023-05-08T14:15:21;100364.56;;;18.97;69.50
11041;BME280;5573;49.592;8.662;2023-05-08T14:18:18;100357.81;;;19.21;68.96
11041;BME280;5573;49.592;8.662;2023-05-08T14:21:06;100362.84;;;18.91;69.36
11041;BME280;5573;49.592;8.662;2023-05-08T14:23:54;100352.53;;;19.10;68.92
11041;BME280;5573;49.592;8.662;2023-05-08T14:26:43;100351.09;;;19.24;68.70
11041;BME280;5573;49.592;8.662;2023-05-08T14:29:30;100352.34;;;19.65;66.64
11041;BME280;5573;49.592;8.662;2023-05-08T14:32:19;100342.47;;;19.27;67.09
11041;BME280;5573;49.592;8.662;2023-05-08T14:35:09;100343.00;;;19.51;66.84
11041;BME280;5573;49.592;8.662;2023-05-08T14:37:57;100346.88;;;19.60;68.01
11041;BME280;5573;49.592;8.662;2023-05-08T14:40:48;100347.63;;;19.28;66.96
11041;BME280;5573;49.592;8.662;2023-05-08T14:43:36;100354.13;;;19.32;68.53
11041;BME280;5573;49.592;8.662;2023-05-08T14:46:24;100340.84;;;19.26;68.00
11041;BME280;5573;49.592;8.662;2023-05-08T14:49:13;100339.91;;;19.15;68.33
11041;BME280;5573;49.592;8.662;2023-05-08T14:52:16;100337.81;;;19.44;66.63
11041;BME280;5573;49.592;8.662;2023-05-08T14:55:05;100330.84;;;18.78;68.76
11041;BME280;5573;49.592;8.662;2023-05-08T14:57:54;100327.28;;;18.94;67.42
11041;BME280;5573;49.592;8.662;2023-05-08T15:00:42;100322.94;;;18.93;67.15
11041;BME280;5573;49.592;8.662;2023-05-08T15:03:30;100326.34;;;18.62;68.66
11041;BME280;5573;49.592;8.662;2023-05-08T15:06:19;100317.59;;;18.55;68.89
11041;BME280;5573;49.592;8.662;2023-05-08T15:09:09;100320.69;;;18.25;70.16
11041;BME280;5573;49.592;8.662;2023-05-08T15:11:57;100323.16;;;18.26;70.27
11041;BME280;5573;49.592;8.662;2023-05-08T15:14:45;100321.28;;;18.49;70.04
11041;BME280;5573;49.592;8.662;2023-05-08T15:17:34;100329.81;;;18.57;70.86